createdAt,value
2022-11-26T00:01:20.615Z,40.00
2022-11-26T00:03:49.116Z,40.72
2022-11-26T00:06:28.456Z,41.45
2022-11-26T00:08:56.525Z,45.30
2022-11-26T00:11:24.516Z,43.55
2022-11-26T00:13:52.229Z,41.85
2022-11-26T00:16:20.540Z,41.75
2022-11-26T00:18:48.270Z,44.17
2022-11-26T00:21:19.171Z,43.72
2022-11-26T00:23:48.433Z,43.33
2022-11-26T00:26:19.306Z,40.20
2022-11-26T00:28:51.420Z,42.00
2022-11-26T00:33:47.331Z,39.50
2022-11-26T00:36:19.778Z,41.75
2022-11-26T00:38:54.647Z,48.40
2022-11-26T00:41:24.805Z,47.08
2022-11-26T00:43:52.820Z,48.50
2022-11-26T00:46:22.976Z,41.03
2022-11-26T00:48:51.908Z,44.85
2022-11-26T00:51:23.795Z,37.90
2022-11-26T00:53:54.543Z,31.20
2022-11-26T00:56:23.550Z,30.80
2022-11-26T00:58:51.819Z,28.55
2022-11-26T01:01:23.184Z,27.70
2022-11-26T01:03:51.479Z,22.25
2022-11-26T01:06:22.095Z,27.20
2022-11-26T01:08:49.804Z,26.35
2022-11-26T01:11:21.724Z,24.63
2022-11-26T01:13:51.729Z,24.30
2022-11-26T01:16:22.790Z,21.45
2022-11-26T01:18:52.381Z,22.48
2022-11-26T01:21:21.889Z,23.77
2022-11-26T01:23:49.963Z,24.48
2022-11-26T01:26:23.466Z,24.50
2022-11-26T01:28:51.361Z,24.00
2022-11-26T01:31:22.077Z,25.65
2022-11-26T01:33:49.935Z,24.23
2022-11-26T01:36:26.816Z,23.48
2022-11-26T01:38:55.261Z,23.63
2022-11-26T01:41:39.526Z,24.50
2022-11-26T01:44:15.071Z,23.55
2022-11-26T01:46:43.665Z,24.35
2022-11-26T01:49:20.316Z,27.50
2022-11-26T01:51:51.732Z,27.98
2022-11-26T01:54:19.602Z,27.77
2022-11-26T01:56:52.567Z,27.40
2022-11-26T01:59:25.455Z,25.33
2022-11-26T02:01:56.491Z,25.90
2022-11-26T02:04:27.307Z,25.13
2022-11-26T02:06:57.887Z,25.40
2022-11-26T02:09:27.261Z,24.80
2022-11-26T02:11:56.979Z,24.60
2022-11-26T02:14:27.951Z,27.30
2022-11-26T02:17:17.307Z,25.45
2022-11-26T02:20:25.881Z,24.13
2022-11-26T02:23:14.375Z,25.17
2022-11-26T02:26:02.108Z,25.10
2022-11-26T02:28:56.283Z,24.85
2022-11-26T02:31:30.860Z,23.83
2022-11-26T02:34:11.859Z,23.23
2022-11-26T02:36:44.539Z,24.08
2022-11-26T02:39:14.534Z,24.25
2022-11-26T02:41:43.739Z,24.60
2022-11-26T02:44:12.224Z,25.73
2022-11-26T02:46:43.156Z,25.95
2022-11-26T02:49:13.304Z,24.80
2022-11-26T02:51:42.532Z,27.73
2022-11-26T02:54:12.372Z,27.77
2022-11-26T02:56:41.331Z,27.52
2022-11-26T02:59:10.095Z,29.15
2022-11-26T03:01:42.801Z,29.02
2022-11-26T03:04:17.784Z,27.23
2022-11-26T03:06:46.482Z,26.73
2022-11-26T03:09:16.886Z,28.02
2022-11-26T03:11:45.217Z,29.58
2022-11-26T03:14:13.180Z,30.17
2022-11-26T03:16:42.332Z,29.88
2022-11-26T03:19:10.411Z,29.10
2022-11-26T03:21:38.076Z,27.42
2022-11-26T03:24:06.788Z,26.92
2022-11-26T03:26:34.470Z,27.23
2022-11-26T03:29:02.458Z,26.48
2022-11-26T03:31:30.221Z,25.25
2022-11-26T03:33:59.599Z,26.63
2022-11-26T03:36:27.420Z,28.98
2022-11-26T03:38:55.399Z,25.08
2022-11-26T03:41:23.382Z,27.15
2022-11-26T03:43:51.375Z,28.50
2022-11-26T03:46:19.157Z,31.27
2022-11-26T03:48:47.158Z,30.83
2022-11-26T03:51:16.524Z,37.38
2022-11-26T03:53:44.533Z,39.70
2022-11-26T03:56:12.283Z,42.50
2022-11-26T03:58:40.409Z,41.40
2022-11-26T04:01:09.714Z,37.90
2022-11-26T04:03:37.761Z,39.58
2022-11-26T04:06:07.027Z,47.97
2022-11-26T04:08:36.368Z,56.17
2022-11-26T04:11:04.243Z,57.35
2022-11-26T04:13:32.319Z,48.97
2022-11-26T04:16:00.005Z,48.03
2022-11-26T04:18:27.981Z,42.67
2022-11-26T04:20:55.705Z,42.20
2022-11-26T04:23:23.867Z,39.97
2022-11-26T04:25:52.992Z,36.65
2022-11-26T04:28:20.935Z,39.90
2022-11-26T04:30:48.715Z,39.83
2022-11-26T04:33:17.222Z,34.33
2022-11-26T04:35:45.052Z,37.58
2022-11-26T04:38:13.048Z,39.38
2022-11-26T04:40:40.772Z,38.40
2022-11-26T04:43:10.067Z,51.92
2022-11-26T04:45:37.879Z,36.35
2022-11-26T04:48:06.827Z,41.03
2022-11-26T04:50:34.644Z,40.50
2022-11-26T04:53:02.743Z,41.97
2022-11-26T04:55:30.605Z,31.15
2022-11-26T04:57:58.946Z,25.75
2022-11-26T05:00:28.260Z,28.10
2022-11-26T05:02:56.405Z,21.20
2022-11-26T05:05:24.118Z,28.65
2022-11-26T05:07:52.292Z,25.85
2022-11-26T05:10:20.147Z,24.85
2022-11-26T05:12:48.100Z,21.98
2022-11-26T05:15:15.823Z,24.33
2022-11-26T05:17:45.139Z,23.42
2022-11-26T05:20:14.839Z,22.95
2022-11-26T05:22:43.092Z,26.27
2022-11-26T05:25:11.276Z,27.13
2022-11-26T05:27:39.395Z,24.25
2022-11-26T05:30:08.440Z,21.20
2022-11-26T05:32:36.523Z,20.65
2022-11-26T05:35:06.240Z,19.63
2022-11-26T05:37:34.225Z,18.83
2022-11-26T05:40:01.937Z,20.02
2022-11-26T05:42:30.120Z,17.77
2022-11-26T05:44:57.800Z,19.00
2022-11-26T05:47:25.775Z,18.85
2022-11-26T05:49:53.743Z,20.67
2022-11-26T05:52:23.078Z,20.10
2022-11-26T05:54:50.902Z,21.48
2022-11-26T05:57:20.052Z,20.67
2022-11-26T05:59:48.744Z,20.92
2022-11-26T06:02:16.913Z,20.25
2022-11-26T06:04:45.753Z,18.92
2022-11-26T06:07:13.797Z,19.88
2022-11-26T06:09:42.997Z,19.15
2022-11-26T06:12:11.120Z,22.40
2022-11-26T06:14:42.967Z,33.10
2022-11-26T06:17:11.492Z,27.17
2022-11-26T06:19:39.492Z,24.10
2022-11-26T06:22:07.555Z,25.02
2022-11-26T06:24:35.792Z,23.75
2022-11-26T06:27:05.548Z,23.17
2022-11-26T06:29:33.491Z,29.42
2022-11-26T06:32:01.495Z,26.77
2022-11-26T06:34:29.195Z,31.05
2022-11-26T06:36:57.321Z,30.40
2022-11-26T06:39:25.013Z,49.33
2022-11-26T06:41:53.048Z,44.65
2022-11-26T06:44:22.323Z,34.78
2022-11-26T06:46:50.355Z,33.25
2022-11-26T06:49:18.049Z,43.08
2022-11-26T06:51:46.009Z,35.35
2022-11-26T06:54:13.698Z,39.42
2022-11-26T06:56:41.674Z,45.80
2022-11-26T06:59:09.417Z,43.85
2022-11-26T07:01:39.438Z,36.63
2022-11-26T07:04:07.164Z,30.58
2022-11-26T07:06:35.813Z,26.77
2022-11-26T07:09:06.195Z,29.63
2022-11-26T07:11:34.833Z,28.80
2022-11-26T07:14:02.779Z,29.70
2022-11-26T07:16:31.144Z,30.70
2022-11-26T07:19:02.889Z,32.08
2022-11-26T07:21:31.957Z,30.55
2022-11-26T07:24:00.471Z,28.90
2022-11-26T07:26:28.676Z,25.58
2022-11-26T07:28:56.483Z,29.20
2022-11-26T07:31:24.886Z,36.65
2022-11-26T07:33:53.098Z,29.38
2022-11-26T07:36:24.565Z,31.33
2022-11-26T07:38:54.689Z,30.23
2022-11-26T07:41:23.296Z,28.45
2022-11-26T07:43:51.075Z,30.00
2022-11-26T07:46:21.833Z,29.65
2022-11-26T07:48:50.054Z,29.50
2022-11-26T07:51:20.131Z,31.55
2022-11-26T07:53:49.600Z,31.00
2022-11-26T07:56:18.539Z,30.30
2022-11-26T07:58:46.988Z,30.63
2022-11-26T08:01:16.783Z,31.75
2022-11-26T08:03:47.583Z,27.45
2022-11-26T08:06:20.431Z,29.27
2022-11-26T08:08:49.930Z,28.15
2022-11-26T08:11:19.841Z,30.88
2022-11-26T08:13:48.719Z,30.55
2022-11-26T08:16:16.991Z,26.45
2022-11-26T08:18:44.940Z,25.15
2022-11-26T08:21:13.033Z,32.55
2022-11-26T08:23:40.844Z,30.05
2022-11-26T08:26:34.708Z,25.50
2022-11-26T08:29:01.270Z,26.90
2022-11-26T08:31:29.733Z,39.20
2022-11-26T08:33:58.835Z,33.20
2022-11-26T08:36:27.172Z,31.95
2022-11-26T08:38:55.077Z,30.63
2022-11-26T08:41:24.652Z,30.90
2022-11-26T08:44:08.556Z,30.90
2022-11-26T08:46:37.300Z,33.67
2022-11-26T08:49:06.159Z,38.72
2022-11-26T08:51:34.453Z,38.83
2022-11-26T08:54:02.293Z,39.97
2022-11-26T08:56:31.796Z,41.08
2022-11-26T08:58:59.497Z,41.88
2022-11-26T09:01:29.660Z,42.45
2022-11-26T09:03:59.602Z,43.10
2022-11-26T09:06:29.609Z,48.38
2022-11-26T09:09:17.442Z,43.67
2022-11-26T09:11:49.583Z,47.00
2022-11-26T09:14:20.752Z,39.25
2022-11-26T09:16:48.835Z,41.72
2022-11-26T09:19:17.810Z,45.30
2022-11-26T09:21:46.750Z,40.50
2022-11-26T09:24:15.031Z,39.53
2022-11-26T09:26:43.307Z,38.17
2022-11-26T09:29:14.175Z,34.80
2022-11-26T09:32:01.200Z,36.87
2022-11-26T09:34:30.930Z,38.42
2022-11-26T09:36:58.906Z,35.58
2022-11-26T09:39:27.988Z,34.60
2022-11-26T09:42:04.655Z,32.22
2022-11-26T09:44:47.444Z,33.53
2022-11-26T09:47:19.352Z,34.67
2022-11-26T09:49:58.050Z,36.22
2022-11-26T09:52:31.085Z,36.70
2022-11-26T09:55:06.700Z,36.55
2022-11-26T09:57:41.745Z,35.97
2022-11-26T10:00:23.424Z,38.83
2022-11-26T10:02:53.791Z,41.45
2022-11-26T10:05:25.537Z,42.88
2022-11-26T10:08:03.561Z,43.97
2022-11-26T10:10:38.535Z,48.38
2022-11-26T10:13:20.193Z,54.22
2022-11-26T10:16:01.219Z,54.13
2022-11-26T10:18:41.248Z,59.88
2022-11-26T10:21:27.307Z,64.75
2022-11-26T10:24:15.775Z,67.32
2022-11-26T10:26:44.467Z,69.95
2022-11-26T10:29:24.296Z,73.32
2022-11-26T10:31:59.593Z,72.32
2022-11-26T10:34:39.417Z,73.57
2022-11-26T10:37:07.728Z,72.57
2022-11-26T10:39:35.687Z,70.85
2022-11-26T10:42:06.215Z,72.47
2022-11-26T10:44:40.032Z,72.90
2022-11-26T10:47:27.948Z,74.45
2022-11-26T10:49:58.344Z,78.78
2022-11-26T10:52:29.681Z,81.20
2022-11-26T10:55:11.047Z,78.88
2022-11-26T10:57:44.687Z,81.60
2022-11-26T11:00:38.707Z,78.45
2022-11-26T11:03:17.188Z,78.75
2022-11-26T11:05:45.868Z,81.55
2022-11-26T11:08:15.395Z,76.30
2022-11-26T11:10:55.420Z,80.50
2022-11-26T11:13:25.430Z,72.80
2022-11-26T11:16:02.532Z,77.07
2022-11-26T11:18:32.005Z,80.10
2022-11-26T11:21:03.140Z,78.72
2022-11-26T11:24:00.169Z,71.88
2022-11-26T11:26:23.623Z,68.07
2022-11-26T11:28:53.916Z,65.57
2022-11-26T11:31:24.012Z,54.15
2022-11-26T11:34:11.979Z,55.70
2022-11-26T11:36:40.488Z,63.95
2022-11-26T11:39:29.362Z,52.78
2022-11-26T11:41:59.411Z,21.73
2022-11-26T11:44:32.463Z,30.38
2022-11-26T11:47:32.135Z,31.23
2022-11-26T11:50:14.673Z,27.05
2022-11-26T11:52:54.431Z,44.15
2022-11-26T11:55:29.291Z,30.73
2022-11-26T11:58:22.307Z,34.03
2022-11-26T12:00:55.610Z,30.40
2022-11-26T12:03:42.896Z,34.03
2022-11-26T12:06:26.304Z,28.77
2022-11-26T12:09:04.074Z,24.95
2022-11-26T12:11:43.088Z,28.38
2022-11-26T12:14:17.215Z,30.90
2022-11-26T12:16:48.367Z,26.50
2022-11-26T12:19:23.819Z,26.73
2022-11-26T12:21:58.499Z,25.48
2022-11-26T12:24:36.510Z,26.55
2022-11-26T12:27:09.783Z,28.17
2022-11-26T12:29:42.868Z,28.90
2022-11-26T12:32:17.172Z,28.83
2022-11-26T12:34:49.076Z,29.35
2022-11-26T12:37:21.765Z,27.30
2022-11-26T12:39:57.379Z,52.75
2022-11-26T12:42:31.691Z,31.45
2022-11-26T12:45:17.382Z,30.45
2022-11-26T12:47:52.832Z,26.35
2022-11-26T12:50:27.223Z,33.50
2022-11-26T12:53:04.938Z,29.73
2022-11-26T12:55:36.820Z,29.98
2022-11-26T12:58:12.127Z,27.50
2022-11-26T13:00:40.220Z,40.33
2022-11-26T13:03:15.148Z,28.15
2022-11-26T13:05:55.407Z,28.50
2022-11-26T13:08:37.887Z,28.95
2022-11-26T13:11:21.623Z,29.10
2022-11-26T13:13:54.500Z,28.95
2022-11-26T13:16:34.668Z,29.33
2022-11-26T13:19:08.231Z,28.27
2022-11-26T13:21:48.579Z,27.33
2022-11-26T13:24:32.723Z,26.52
2022-11-26T13:27:23.493Z,25.38
2022-11-26T13:30:10.510Z,24.70
2022-11-26T13:32:58.399Z,27.08
2022-11-26T13:35:46.176Z,27.23
2022-11-26T13:38:21.511Z,26.77
2022-11-26T13:41:32.684Z,27.98
2022-11-26T13:44:25.934Z,29.25
2022-11-26T13:47:00.619Z,31.88
2022-11-26T13:49:36.907Z,31.88
2022-11-26T13:52:11.642Z,31.90
2022-11-26T13:54:46.288Z,31.52
2022-11-26T13:57:19.735Z,29.88
2022-11-26T13:59:49.885Z,29.55
2022-11-26T14:02:44.519Z,30.42
2022-11-26T14:05:15.087Z,32.30
2022-11-26T14:07:43.401Z,32.85
2022-11-26T14:10:42.286Z,33.47
2022-11-26T14:13:17.497Z,37.97
2022-11-26T14:15:55.124Z,37.50
2022-11-26T14:18:58.736Z,41.78
2022-11-26T14:21:28.352Z,39.75
2022-11-26T14:23:58.035Z,44.65
2022-11-26T14:26:34.104Z,42.28
2022-11-26T14:29:12.047Z,42.95
2022-11-26T14:31:43.703Z,44.92
2022-11-26T14:34:16.748Z,46.70
2022-11-26T14:36:56.622Z,47.15
2022-11-26T14:39:25.092Z,45.88
2022-11-26T14:42:02.199Z,45.67
2022-11-26T14:44:34.800Z,45.42
2022-11-26T14:47:10.826Z,47.67
2022-11-26T14:49:40.335Z,45.92
2022-11-26T14:52:18.452Z,46.33
2022-11-26T14:54:48.427Z,47.80
2022-11-26T14:57:22.054Z,45.97
2022-11-26T14:59:58.659Z,43.63
2022-11-26T15:02:29.071Z,50.67
2022-11-26T15:05:02.058Z,53.97
2022-11-26T15:07:31.900Z,52.05
2022-11-26T15:10:05.179Z,55.90
2022-11-26T15:12:35.608Z,54.30
2022-11-26T15:15:05.897Z,51.42
2022-11-26T15:17:35.344Z,48.33
2022-11-26T15:20:07.606Z,47.20
2022-11-26T15:22:39.007Z,45.88
2022-11-26T15:25:16.047Z,46.40
2022-11-26T15:27:53.191Z,50.03
2022-11-26T15:30:25.762Z,42.78
2022-11-26T15:33:04.720Z,43.88
2022-11-26T15:35:33.252Z,48.30
2022-11-26T15:38:01.625Z,89.93
2022-11-26T15:40:32.376Z,44.85
2022-11-26T15:43:03.168Z,51.15
2022-11-26T15:45:36.965Z,42.70
2022-11-26T15:48:07.476Z,45.20
2022-11-26T15:50:38.259Z,47.38
2022-11-26T15:53:14.263Z,45.60
2022-11-26T15:55:47.463Z,44.60
2022-11-26T15:58:22.520Z,43.03
2022-11-26T16:00:54.634Z,45.10
2022-11-26T16:03:42.315Z,45.80
2022-11-26T16:06:27.839Z,44.80
2022-11-26T16:09:02.308Z,43.25
2022-11-26T16:11:31.833Z,43.20
2022-11-26T16:13:59.900Z,42.90
2022-11-26T16:16:28.985Z,42.13
2022-11-26T16:18:59.693Z,42.97
2022-11-26T16:21:30.128Z,44.05
2022-11-26T16:24:00.415Z,42.58
2022-11-26T16:26:28.676Z,47.15
2022-11-26T16:28:56.646Z,47.85
2022-11-26T16:31:24.638Z,49.00
2022-11-26T16:33:54.003Z,51.42
2022-11-26T16:36:25.031Z,58.13
2022-11-26T16:38:53.841Z,59.70
2022-11-26T16:41:23.289Z,59.70
2022-11-26T16:43:51.619Z,56.38
2022-11-26T16:46:23.226Z,55.55
2022-11-26T16:48:52.314Z,51.67
2022-11-26T16:51:22.193Z,48.40
2022-11-26T16:53:50.767Z,47.13
2022-11-26T16:56:22.791Z,53.45
2022-11-26T17:01:19.222Z,51.25
2022-11-26T17:03:47.291Z,54.33
2022-11-26T17:06:19.156Z,56.45
2022-11-26T17:11:36.719Z,62.03
2022-11-26T17:14:04.740Z,51.35
2022-11-26T17:16:32.506Z,53.47
2022-11-26T17:19:00.667Z,59.83
2022-11-26T17:21:28.387Z,56.97
2022-11-26T17:23:57.884Z,58.42
2022-11-26T17:26:26.340Z,61.10
2022-11-26T17:28:54.644Z,58.15
2022-11-26T17:31:22.418Z,57.75
2022-11-26T17:33:51.053Z,60.58
2022-11-26T17:36:21.210Z,63.10
2022-11-26T17:38:49.820Z,69.07
2022-11-26T17:41:19.038Z,68.20
2022-11-26T17:43:47.288Z,74.50
2022-11-26T17:46:20.023Z,74.03
2022-11-26T17:48:49.309Z,76.65
2022-11-26T17:51:18.062Z,79.45
2022-11-26T17:53:46.574Z,80.00
2022-11-26T17:56:20.968Z,86.95
2022-11-26T17:58:49.423Z,94.57
2022-11-26T18:01:18.443Z,108.55
2022-11-26T18:03:46.744Z,91.47
2022-11-26T18:06:19.034Z,93.82
2022-11-26T18:08:47.388Z,95.25
2022-11-26T18:11:16.672Z,86.05
2022-11-26T18:13:46.190Z,83.25
2022-11-26T18:16:13.946Z,80.50
2022-11-26T18:18:41.930Z,76.53
2022-11-26T18:21:09.771Z,80.00
2022-11-26T18:23:37.720Z,75.85
2022-11-26T18:26:05.551Z,73.65
2022-11-26T18:28:33.796Z,72.68
2022-11-26T18:31:02.893Z,74.10
2022-11-26T18:33:30.860Z,69.75
2022-11-26T18:35:58.519Z,74.60
2022-11-26T18:38:28.978Z,72.55
2022-11-26T18:41:02.107Z,65.10
2022-11-26T18:43:30.331Z,65.07
2022-11-26T18:45:58.158Z,66.65
2022-11-26T18:48:27.495Z,65.78
2022-11-26T18:50:58.533Z,68.78
2022-11-26T18:53:28.414Z,61.65
2022-11-26T18:55:56.829Z,63.53
2022-11-26T18:58:25.487Z,61.05
2022-11-26T19:00:58.292Z,58.30
2022-11-26T19:03:28.262Z,60.28
2022-11-26T19:05:56.438Z,50.78
2022-11-26T19:08:25.109Z,53.58
2022-11-26T19:10:52.832Z,54.25
2022-11-26T19:13:21.266Z,51.22
2022-11-26T19:15:49.529Z,42.42
2022-11-26T19:18:17.664Z,40.53
2022-11-26T19:20:51.208Z,38.85
2022-11-26T19:23:24.181Z,39.08
2022-11-26T19:25:52.017Z,38.33
2022-11-26T19:28:19.999Z,41.72
2022-11-26T19:30:58.582Z,41.60
2022-11-26T19:33:26.755Z,40.30
2022-11-26T19:35:56.037Z,38.13
2022-11-26T19:38:24.328Z,37.15
2022-11-26T19:40:57.062Z,36.03
2022-11-26T19:43:26.103Z,34.42
2022-11-26T19:46:01.522Z,34.92
2022-11-26T19:48:29.652Z,35.90
2022-11-26T19:50:58.709Z,36.20
2022-11-26T19:53:26.959Z,35.03
2022-11-26T19:55:59.803Z,36.05
2022-11-26T19:58:28.322Z,39.58
2022-11-26T20:00:56.094Z,39.80
2022-11-26T20:03:24.936Z,41.30
2022-11-26T20:05:53.187Z,42.05
2022-11-26T20:08:22.511Z,43.33
2022-11-26T20:10:50.328Z,47.20
2022-11-26T20:13:18.370Z,46.55
2022-11-26T20:15:47.394Z,50.65
2022-11-26T20:18:16.120Z,49.90
2022-11-26T20:20:43.840Z,51.22
2022-11-26T20:23:11.886Z,51.13
2022-11-26T20:25:40.923Z,49.03
2022-11-26T20:28:09.938Z,52.15
2022-11-26T20:30:38.531Z,52.22
2022-11-26T20:33:07.088Z,51.83
2022-11-26T20:35:34.891Z,54.15
2022-11-26T20:38:02.865Z,53.08
2022-11-26T20:40:30.568Z,54.65
2022-11-26T20:42:59.972Z,54.83
2022-11-26T20:45:27.749Z,55.88
2022-11-26T20:47:57.267Z,57.95
2022-11-26T20:50:25.537Z,55.33
2022-11-26T20:52:53.712Z,57.28
2022-11-26T20:55:21.964Z,59.30
2022-11-26T20:57:51.367Z,58.33
2022-11-26T21:00:24.927Z,58.65
2022-11-26T21:02:55.569Z,58.92
2022-11-26T21:05:24.025Z,57.58
2022-11-26T21:07:52.132Z,56.65
2022-11-26T21:10:25.031Z,57.30
2022-11-26T21:12:53.126Z,58.42
2022-11-26T21:15:23.050Z,55.47
2022-11-26T21:17:51.299Z,56.95
2022-11-26T21:20:19.197Z,59.67
2022-11-26T21:22:47.199Z,57.80
2022-11-26T21:25:16.228Z,54.00
2022-11-26T21:27:44.243Z,54.80
2022-11-26T21:30:13.406Z,50.92
2022-11-26T21:32:43.008Z,53.20
2022-11-26T21:35:11.339Z,55.45
2022-11-26T21:37:39.339Z,53.83
2022-11-26T21:40:08.592Z,55.05
2022-11-26T21:42:36.564Z,56.13
2022-11-26T21:45:05.060Z,52.45
2022-11-26T21:47:33.263Z,56.72
2022-11-26T21:50:02.382Z,56.10
2022-11-26T21:52:30.492Z,55.47
2022-11-26T21:55:03.277Z,55.08
2022-11-26T21:57:32.480Z,56.33
2022-11-26T22:00:00.566Z,52.45
2022-11-26T22:02:28.561Z,53.45
2022-11-26T22:04:56.435Z,56.00
2022-11-26T22:07:26.015Z,56.00
2022-11-26T22:09:53.848Z,56.25
2022-11-26T22:12:21.819Z,58.25
2022-11-26T22:14:49.497Z,59.20
2022-11-26T22:17:17.443Z,61.08
2022-11-26T22:19:45.159Z,61.25
2022-11-26T22:22:13.175Z,63.63
2022-11-26T22:24:42.309Z,59.80
2022-11-26T22:27:10.390Z,60.92
2022-11-26T22:29:38.383Z,54.25
2022-11-26T22:32:07.158Z,59.03
2022-11-26T22:34:34.875Z,58.92
2022-11-26T22:37:02.986Z,56.53
2022-11-26T22:39:31.709Z,54.78
2022-11-26T22:42:01.720Z,56.03
2022-11-26T22:44:29.463Z,57.45
2022-11-26T22:46:57.408Z,56.67
2022-11-26T22:49:25.411Z,55.58
2022-11-26T22:51:53.364Z,55.97
2022-11-26T22:54:21.321Z,56.13
2022-11-26T22:56:49.292Z,57.83
2022-11-26T22:59:18.422Z,55.40
2022-11-26T23:01:46.540Z,54.40
2022-11-26T23:04:14.307Z,35.38
2022-11-26T23:06:42.669Z,47.60
2022-11-26T23:09:13.315Z,49.47
2022-11-26T23:11:43.036Z,40.22
2022-11-26T23:14:12.039Z,23.02
2022-11-26T23:16:43.298Z,30.92
2022-11-26T23:19:14.633Z,31.90
2022-11-26T23:21:44.687Z,33.15
2022-11-26T23:24:13.564Z,33.08
2022-11-26T23:26:41.952Z,31.95
2022-11-26T23:29:11.032Z,34.10
2022-11-26T23:31:42.923Z,34.58
2022-11-26T23:34:11.235Z,34.45
2022-11-26T23:36:39.371Z,33.20
2022-11-26T23:39:10.468Z,33.75
2022-11-26T23:41:38.468Z,33.67
2022-11-26T23:44:06.316Z,31.48
2022-11-26T23:46:36.169Z,29.40
2022-11-26T23:49:05.383Z,30.95
2022-11-26T23:51:34.154Z,31.67
2022-11-26T23:54:01.994Z,35.00
2022-11-26T23:56:31.639Z,35.58
2022-11-26T23:59:01.537Z,24.95
